sensor_id;sensor_type;location;lat;lon;timestamp;temperature;humidity
3288;DHT22;3260;52.438;13.502;2022-07-24T04:01:36;14.80;1.00
3288;DHT22;3260;52.438;13.502;2022-07-24T04:04:04;14.90;1.00
3288;DHT22;3260;52.438;13.502;2022-07-24T04:06:32;14.90;1.00
3288;DHT22;3260;52.438;13.502;2022-07-24T04:09:03;14.90;1.00
3288;DHT22;3260;52.438;13.502;2022-07-24T04:11:33;15.00;1.00
3288;DHT22;3260;52.438;13.502;2022-07-24T04:14:02;15.10;1.00
3288;DHT22;3260;52.438;13.502;2022-07-24T04:16:31;15.20;1.00
3288;DHT22;3260;52.438;13.502;2022-07-24T04:19:00;15.20;1.00
3288;DHT22;3260;52.438;13.502;2022-07-24T04:21:33;15.30;1.00
3288;DHT22;3260;52.438;13.502;2022-07-24T04:24:01;15.30;1.00
3288;DHT22;3260;52.438;13.502;2022-07-24T04:26:29;15.40;1.00
3288;DHT22;3260;52.438;13.502;2022-07-24T04:28:57;15.40;1.00
3288;DHT22;3260;52.438;13.502;2022-07-24T04:31:26;15.40;1.00
3288;DHT22;3260;52.438;13.502;2022-07-24T04:33:54;15.50;1.00
3288;DHT22;3260;52.438;13.502;2022-07-24T04:36:24;15.50;1.00
3288;DHT22;3260;52.438;13.502;2022-07-24T04:38:52;15.60;1.00
3288;DHT22;3260;52.438;13.502;2022-07-24T04:41:20;15.70;1.00
3288;DHT22;3260;52.438;13.502;2022-07-24T04:43:48;15.90;1.00
3288;DHT22;3260;52.438;13.502;2022-07-24T04:46:17;16.00;1.00
3288;DHT22;3260;52.438;13.502;2022-07-24T04:48:45;16.10;1.00
3288;DHT22;3260;52.438;13.502;2022-07-24T04:51:13;16.10;1.00
3288;DHT22;3260;52.438;13.502;2022-07-24T04:53:43;16.30;1.00
3288;DHT22;3260;52.438;13.502;2022-07-24T04:56:11;16.30;1.00
3288;DHT22;3260;52.438;13.502;2022-07-24T04:58:40;16.40;1.00
3288;DHT22;3260;52.438;13.502;2022-07-24T05:01:08;16.50;1.00
3288;DHT22;3260;52.438;13.502;2022-07-24T05:03:36;16.50;1.00
3288;DHT22;3260;52.438;13.502;2022-07-24T05:06:05;16.60;1.00
3288;DHT22;3260;52.438;13.502;2022-07-24T05:08:33;16.70;1.00
3288;DHT22;3260;52.438;13.502;2022-07-24T05:11:03;16.80;1.00
3288;DHT22;3260;52.438;13.502;2022-07-24T05:13:31;17.00;1.00
3288;DHT22;3260;52.438;13.502;2022-07-24T05:15:59;17.00;1.00
3288;DHT22;3260;52.438;13.502;2022-07-24T05:18:27;17.10;1.00
3288;DHT22;3260;52.438;13.502;2022-07-24T05:20:56;17.20;1.00
3288;DHT22;3260;52.438;13.502;2022-07-24T05:23:24;17.20;1.00
3288;DHT22;3260;52.438;13.502;2022-07-24T05:25:52;17.30;1.00
3288;DHT22;3260;52.438;13.502;2022-07-24T05:28:22;17.40;1.00
3288;DHT22;3260;52.438;13.502;2022-07-24T05:30:50;17.50;1.00
3288;DHT22;3260;52.438;13.502;2022-07-24T05:33:18;17.50;1.00
3288;DHT22;3260;52.438;13.502;2022-07-24T05:35:46;17.70;1.00
3288;DHT22;3260;52.438;13.502;2022-07-24T05:38:15;17.80;1.00
3288;DHT22;3260;52.438;13.502;2022-07-24T05:40:43;17.90;1.00
3288;DHT22;3260;52.438;13.502;2022-07-24T05:43:11;18.10;1.00
3288;DHT22;3260;52.438;13.502;2022-07-24T05:45:41;18.10;1.00
3288;DHT22;3260;52.438;13.502;2022-07-24T05:48:09;18.30;1.00
3288;DHT22;3260;52.438;13.502;2022-07-24T05:50:37;18.30;1.00
3288;DHT22;3260;52.438;13.502;2022-07-24T05:53:05;18.30;1.00
3288;DHT22;3260;52.438;13.502;2022-07-24T05:55:33;18.40;1.00
3288;DHT22;3260;52.438;13.502;2022-07-24T05:58:02;18.40;1.00
3288;DHT22;3260;52.438;13.502;2022-07-24T06:00:30;18.50;1.00
3288;DHT22;3260;52.438;13.502;2022-07-24T06:03:00;18.60;1.00
3288;DHT22;3260;52.438;13.502;2022-07-24T06:05:28;18.70;1.00
3288;DHT22;3260;52.438;13.502;2022-07-24T06:07:56;18.80;1.00
3288;DHT22;3260;52.438;13.502;2022-07-24T06:10:24;18.90;1.00
3288;DHT22;3260;52.438;13.502;2022-07-24T06:12:53;18.90;1.00
3288;DHT22;3260;52.438;13.502;2022-07-24T06:15:21;19.00;1.00
3288;DHT22;3260;52.438;13.502;2022-07-24T06:17:49;19.00;1.00
3288;DHT22;3260;52.438;13.502;2022-07-24T06:20:19;19.00;1.00
3288;DHT22;3260;52.438;13.502;2022-07-24T06:22:47;19.00;1.00
3288;DHT22;3260;52.438;13.502;2022-07-24T06:25:16;19.20;1.00
3288;DHT22;3260;52.438;13.502;2022-07-24T06:27:46;19.30;1.00
3288;DHT22;3260;52.438;13.502;2022-07-24T06:30:16;19.30;1.00
3288;DHT22;3260;52.438;13.502;2022-07-24T06:32:45;19.20;1.00
3288;DHT22;3260;52.438;13.502;2022-07-24T06:35:14;19.20;1.00
3288;DHT22;3260;52.438;13.502;2022-07-24T06:37:44;19.20;1.00
3288;DHT22;3260;52.438;13.502;2022-07-24T06:40:14;19.30;1.00
3288;DHT22;3260;52.438;13.502;2022-07-24T06:42:43;19.40;1.00
3288;DHT22;3260;52.438;13.502;2022-07-24T06:45:12;19.40;1.00
3288;DHT22;3260;52.438;13.502;2022-07-24T06:47:41;19.60;1.00
3288;DHT22;3260;52.438;13.502;2022-07-24T06:50:10;19.60;1.00
3288;DHT22;3260;52.438;13.502;2022-07-24T06:52:39;19.60;1.00
3288;DHT22;3260;52.438;13.502;2022-07-24T06:55:09;19.70;1.00
3288;DHT22;3260;52.438;13.502;2022-07-24T06:57:37;19.60;1.00
3288;DHT22;3260;52.438;13.502;2022-07-24T07:00:08;19.50;1.00
3288;DHT22;3260;52.438;13.502;2022-07-24T07:02:38;19.50;1.00
3288;DHT22;3260;52.438;13.502;2022-07-24T07:05:08;19.40;1.00
3288;DHT22;3260;52.438;13.502;2022-07-24T07:07:38;19.50;1.00
3288;DHT22;3260;52.438;13.502;2022-07-24T07:10:07;19.60;1.00
3288;DHT22;3260;52.438;13.502;2022-07-24T07:12:37;19.70;1.00
3288;DHT22;3260;52.438;13.502;2022-07-24T07:15:07;19.80;1.00
3288;DHT22;3260;52.438;13.502;2022-07-24T07:17:37;19.90;1.00
3288;DHT22;3260;52.438;13.502;2022-07-24T07:20:07;19.90;1.00
3288;DHT22;3260;52.438;13.502;2022-07-24T07:22:37;19.90;1.00
3288;DHT22;3260;52.438;13.502;2022-07-24T07:25:06;19.90;1.00
3288;DHT22;3260;52.438;13.502;2022-07-24T07:27:37;20.00;1.00
3288;DHT22;3260;52.438;13.502;2022-07-24T07:30:07;20.00;1.00
3288;DHT22;3260;52.438;13.502;2022-07-24T07:32:36;20.10;1.00
3288;DHT22;3260;52.438;13.502;2022-07-24T07:35:05;20.20;1.00
3288;DHT22;3260;52.438;13.502;2022-07-24T07:37:47;20.40;1.00
3288;DHT22;3260;52.438;13.502;2022-07-24T07:40:18;20.40;1.00
3288;DHT22;3260;52.438;13.502;2022-07-24T07:42:46;20.40;1.00
3288;DHT22;3260;52.438;13.502;2022-07-24T07:45:14;20.40;1.00
3288;DHT22;3260;52.438;13.502;2022-07-24T07:47:42;20.40;1.00
3288;DHT22;3260;52.438;13.502;2022-07-24T07:50:11;20.40;1.00
3288;DHT22;3260;52.438;13.502;2022-07-24T07:52:40;20.50;1.00
3288;DHT22;3260;52.438;13.502;2022-07-24T07:55:09;20.60;1.00
3288;DHT22;3260;52.438;13.502;2022-07-24T07:57:40;20.60;1.00
3288;DHT22;3260;52.438;13.502;2022-07-24T08:00:30;20.70;1.00
3288;DHT22;3260;52.438;13.502;2022-07-24T08:02:58;20.70;1.00
3288;DHT22;3260;52.438;13.502;2022-07-24T08:05:27;20.80;1.00
3288;DHT22;3260;52.438;13.502;2022-07-24T08:07:56;20.90;1.00
3288;DHT22;3260;52.438;13.502;2022-07-24T08:10:24;20.90;1.00
3288;DHT22;3260;52.438;13.502;2022-07-24T08:12:53;21.00;1.00
3288;DHT22;3260;52.438;13.502;2022-07-24T08:15:22;20.90;1.00
3288;DHT22;3260;52.438;13.502;2022-07-24T08:17:54;20.90;1.00
3288;DHT22;3260;52.438;13.502;2022-07-24T08:20:24;20.90;1.00
3288;DHT22;3260;52.438;13.502;2022-07-24T08:22:53;21.10;1.00
3288;DHT22;3260;52.438;13.502;2022-07-24T08:25:24;21.20;1.00
3288;DHT22;3260;52.438;13.502;2022-07-24T08:27:54;21.30;1.00
3288;DHT22;3260;52.438;13.502;2022-07-24T08:30:22;21.40;1.00
3288;DHT22;3260;52.438;13.502;2022-07-24T08:32:52;21.50;1.00
3288;DHT22;3260;52.438;13.502;2022-07-24T08:35:20;21.60;1.00
3288;DHT22;3260;52.438;13.502;2022-07-24T08:37:58;21.60;1.00
3288;DHT22;3260;52.438;13.502;2022-07-24T08:40:32;21.70;1.00
3288;DHT22;3260;52.438;13.502;2022-07-24T08:43:04;21.80;1.00
3288;DHT22;3260;52.438;13.502;2022-07-24T08:45:35;21.90;1.00
3288;DHT22;3260;52.438;13.502;2022-07-24T08:48:06;22.00;1.00
3288;DHT22;3260;52.438;13.502;2022-07-24T08:50:37;22.10;1.00
3288;DHT22;3260;52.438;13.502;2022-07-24T08:53:08;22.20;1.00
3288;DHT22;3260;52.438;13.502;2022-07-24T08:55:37;22.10;1.00
3288;DHT22;3260;52.438;13.502;2022-07-24T08:58:07;22.20;1.00
3288;DHT22;3260;52.438;13.502;2022-07-24T09:00:35;22.40;1.00
3288;DHT22;3260;52.438;13.502;2022-07-24T09:03:03;22.40;1.00
3288;DHT22;3260;52.438;13.502;2022-07-24T09:05:32;22.60;1.00
3288;DHT22;3260;52.438;13.502;2022-07-24T09:08:09;22.60;1.00
3288;DHT22;3260;52.438;13.502;2022-07-24T09:10:53;22.60;1.00
3288;DHT22;3260;52.438;13.502;2022-07-24T09:13:25;22.50;1.00
3288;DHT22;3260;52.438;13.502;2022-07-24T09:15:56;22.50;1.00
3288;DHT22;3260;52.438;13.502;2022-07-24T09:18:26;22.50;1.00
3288;DHT22;3260;52.438;13.502;2022-07-24T09:20:57;22.60;1.00
3288;DHT22;3260;52.438;13.502;2022-07-24T09:23:27;22.50;1.00
3288;DHT22;3260;52.438;13.502;2022-07-24T09:25:55;22.60;1.00
3288;DHT22;3260;52.438;13.502;2022-07-24T09:28:25;22.60;1.00
3288;DHT22;3260;52.438;13.502;2022-07-24T09:31:00;22.60;1.00
3288;DHT22;3260;52.438;13.502;2022-07-24T09:33:35;22.70;1.00
3288;DHT22;3260;52.438;13.502;2022-07-24T09:36:11;22.80;1.00
3288;DHT22;3260;52.438;13.502;2022-07-24T09:38:46;22.90;1.00
3288;DHT22;3260;52.438;13.502;2022-07-24T09:41:23;23.00;1.00
3288;DHT22;3260;52.438;13.502;2022-07-24T09:44:01;23.20;1.00
3288;DHT22;3260;52.438;13.502;2022-07-24T09:46:46;23.20;1.00
3288;DHT22;3260;52.438;13.502;2022-07-24T09:49:19;23.30;1.00
3288;DHT22;3260;52.438;13.502;2022-07-24T09:52:15;23.30;1.00
3288;DHT22;3260;52.438;13.502;2022-07-24T09:54:50;23.40;1.00
3288;DHT22;3260;52.438;13.502;2022-07-24T09:57:21;23.60;1.00
3288;DHT22;3260;52.438;13.502;2022-07-24T09:59:54;23.50;1.00
3288;DHT22;3260;52.438;13.502;2022-07-24T10:02:25;23.60;1.00
3288;DHT22;3260;52.438;13.502;2022-07-24T10:04:55;23.80;1.00
3288;DHT22;3260;52.438;13.502;2022-07-24T10:07:26;23.90;1.00
3288;DHT22;3260;52.438;13.502;2022-07-24T10:09:56;23.80;1.00
3288;DHT22;3260;52.438;13.502;2022-07-24T10:12:28;24.00;1.00
3288;DHT22;3260;52.438;13.502;2022-07-24T10:15:00;24.20;1.00
3288;DHT22;3260;52.438;13.502;2022-07-24T10:17:41;24.40;1.00
3288;DHT22;3260;52.438;13.502;2022-07-24T10:20:38;24.50;1.00
3288;DHT22;3260;52.438;13.502;2022-07-24T10:23:20;24.80;1.00
3288;DHT22;3260;52.438;13.502;2022-07-24T10:25:55;24.90;1.00
3288;DHT22;3260;52.438;13.502;2022-07-24T10:28:38;25.20;1.00
3288;DHT22;3260;52.438;13.502;2022-07-24T10:31:11;25.50;1.00
3288;DHT22;3260;52.438;13.502;2022-07-24T10:33:42;25.90;1.00
3288;DHT22;3260;52.438;13.502;2022-07-24T10:36:24;26.20;1.00
3288;DHT22;3260;52.438;13.502;2022-07-24T10:39:02;26.40;1.00
3288;DHT22;3260;52.438;13.502;2022-07-24T10:41:38;26.70;1.00
3288;DHT22;3260;52.438;13.502;2022-07-24T10:44:13;27.00;1.00
3288;DHT22;3260;52.438;13.502;2022-07-24T10:47:03;27.40;1.00
3288;DHT22;3260;52.438;13.502;2022-07-24T10:49:46;27.70;1.00
3288;DHT22;3260;52.438;13.502;2022-07-24T10:52:27;28.10;1.00
3288;DHT22;3260;52.438;13.502;2022-07-24T10:55:28;28.40;1.00
3288;DHT22;3260;52.438;13.502;2022-07-24T10:58:04;28.70;1.00
3288;DHT22;3260;52.438;13.502;2022-07-24T11:00:43;29.20;1.00
3288;DHT22;3260;52.438;13.502;2022-07-24T11:03:21;29.70;1.00
3288;DHT22;3260;52.438;13.502;2022-07-24T11:06:03;30.10;1.00
3288;DHT22;3260;52.438;13.502;2022-07-24T11:08:38;30.50;1.00
3288;DHT22;3260;52.438;13.502;2022-07-24T11:11:09;30.70;1.00
3288;DHT22;3260;52.438;13.502;2022-07-24T11:13:41;30.90;1.00
3288;DHT22;3260;52.438;13.502;2022-07-24T11:16:21;31.30;1.00
3288;DHT22;3260;52.438;13.502;2022-07-24T11:19:26;31.90;1.00
3288;DHT22;3260;52.438;13.502;2022-07-24T11:22:09;32.40;1.00
3288;DHT22;3260;52.438;13.502;2022-07-24T11:25:06;32.80;1.00
3288;DHT22;3260;52.438;13.502;2022-07-24T11:27:54;33.10;1.00
3288;DHT22;3260;52.438;13.502;2022-07-24T11:30:26;33.40;1.00
3288;DHT22;3260;52.438;13.502;2022-07-24T11:32:56;33.80;1.00
3288;DHT22;3260;52.438;13.502;2022-07-24T11:35:30;34.30;1.00
3288;DHT22;3260;52.438;13.502;2022-07-24T11:38:00;34.80;1.00
3288;DHT22;3260;52.438;13.502;2022-07-24T11:40:30;35.30;1.00
3288;DHT22;3260;52.438;13.502;2022-07-24T11:43:01;35.60;1.00
3288;DHT22;3260;52.438;13.502;2022-07-24T11:45:37;36.00;1.00
3288;DHT22;3260;52.438;13.502;2022-07-24T11:48:06;36.50;1.00
3288;DHT22;3260;52.438;13.502;2022-07-24T11:50:35;36.70;1.00
3288;DHT22;3260;52.438;13.502;2022-07-24T11:53:06;37.20;1.00
3288;DHT22;3260;52.438;13.502;2022-07-24T11:55:35;37.70;1.00
3288;DHT22;3260;52.438;13.502;2022-07-24T11:58:03;38.30;1.00
3288;DHT22;3260;52.438;13.502;2022-07-24T12:00:51;38.80;1.00
3288;DHT22;3260;52.438;13.502;2022-07-24T12:03:19;39.30;1.00
3288;DHT22;3260;52.438;13.502;2022-07-24T12:05:49;40.10;1.00
3288;DHT22;3260;52.438;13.502;2022-07-24T12:08:19;41.00;1.00
3288;DHT22;3260;52.438;13.502;2022-07-24T12:10:55;41.40;1.00
3288;DHT22;3260;52.438;13.502;2022-07-24T12:13:24;42.20;1.00
3288;DHT22;3260;52.438;13.502;2022-07-24T12:15:52;42.90;1.00
3288;DHT22;3260;52.438;13.502;2022-07-24T12:18:20;43.10;1.00
3288;DHT22;3260;52.438;13.502;2022-07-24T12:21:00;43.40;1.00
3288;DHT22;3260;52.438;13.502;2022-07-24T12:23:29;43.90;1.00
3288;DHT22;3260;52.438;13.502;2022-07-24T12:25:59;44.50;1.00
3288;DHT22;3260;52.438;13.502;2022-07-24T12:28:28;45.50;1.00
3288;DHT22;3260;52.438;13.502;2022-07-24T12:30:56;45.90;1.00
3288;DHT22;3260;52.438;13.502;2022-07-24T12:33:25;46.60;1.00
3288;DHT22;3260;52.438;13.502;2022-07-24T12:35:59;46.80;1.00
3288;DHT22;3260;52.438;13.502;2022-07-24T12:38:36;47.30;1.00
3288;DHT22;3260;52.438;13.502;2022-07-24T12:41:07;47.40;1.00
3288;DHT22;3260;52.438;13.502;2022-07-24T12:43:47;48.00;1.00
3288;DHT22;3260;52.438;13.502;2022-07-24T12:46:17;48.40;1.00
3288;DHT22;3260;52.438;13.502;2022-07-24T12:48:57;48.90;1.00
3288;DHT22;3260;52.438;13.502;2022-07-24T12:51:46;49.60;1.00
3288;DHT22;3260;52.438;13.502;2022-07-24T12:54:18;50.30;1.00
3288;DHT22;3260;52.438;13.502;2022-07-24T12:56:49;51.40;1.00
3288;DHT22;3260;52.438;13.502;2022-07-24T12:59:26;51.10;1.00
3288;DHT22;3260;52.438;13.502;2022-07-24T13:01:57;50.40;1.00
3288;DHT22;3260;52.438;13.502;2022-07-24T13:04:26;50.30;1.00
3288;DHT22;3260;52.438;13.502;2022-07-24T13:06:58;51.20;1.00
3288;DHT22;3260;52.438;13.502;2022-07-24T13:09:29;51.40;1.00
3288;DHT22;3260;52.438;13.502;2022-07-24T13:12:05;51.50;1.00
3288;DHT22;3260;52.438;13.502;2022-07-24T13:14:34;51.00;1.00
3288;DHT22;3260;52.438;13.502;2022-07-24T13:17:04;51.20;1.00
3288;DHT22;3260;52.438;13.502;2022-07-24T13:19:36;51.30;1.00
3288;DHT22;3260;52.438;13.502;2022-07-24T13:22:06;51.90;1.00
3288;DHT22;3260;52.438;13.502;2022-07-24T13:24:35;52.40;1.00
3288;DHT22;3260;52.438;13.502;2022-07-24T13:27:04;52.50;1.00
3288;DHT22;3260;52.438;13.502;2022-07-24T13:29:33;52.70;1.00
3288;DHT22;3260;52.438;13.502;2022-07-24T13:32:03;52.80;1.00
3288;DHT22;3260;52.438;13.502;2022-07-24T13:34:32;53.10;1.00
3288;DHT22;3260;52.438;13.502;2022-07-24T13:37:03;53.70;1.00
3288;DHT22;3260;52.438;13.502;2022-07-24T13:39:37;53.80;1.00
3288;DHT22;3260;52.438;13.502;2022-07-24T13:42:07;53.70;1.00
3288;DHT22;3260;52.438;13.502;2022-07-24T13:44:35;53.80;1.00
3288;DHT22;3260;52.438;13.502;2022-07-24T13:47:04;53.20;1.00
3288;DHT22;3260;52.438;13.502;2022-07-24T13:49:32;53.10;1.00
3288;DHT22;3260;52.438;13.502;2022-07-24T13:52:00;53.70;1.00
3288;DHT22;3260;52.438;13.502;2022-07-24T13:54:28;54.40;1.00
3288;DHT22;3260;52.438;13.502;2022-07-24T13:56:58;55.10;1.00
3288;DHT22;3260;52.438;13.502;2022-07-24T13:59:28;55.30;1.00
3288;DHT22;3260;52.438;13.502;2022-07-24T14:01:57;55.10;1.00
3288;DHT22;3260;52.438;13.502;2022-07-24T14:04:25;55.30;1.00
3288;DHT22;3260;52.438;13.502;2022-07-24T14:06:56;55.30;1.00
3288;DHT22;3260;52.438;13.502;2022-07-24T14:09:25;55.70;1.00
3288;DHT22;3260;52.438;13.502;2022-07-24T14:11:54;56.40;1.00
3288;DHT22;3260;52.438;13.502;2022-07-24T14:14:24;56.40;1.00
3288;DHT22;3260;52.438;13.502;2022-07-24T14:16:54;56.40;1.00
3288;DHT22;3260;52.438;13.502;2022-07-24T14:19:23;56.30;1.00
3288;DHT22;3260;52.438;13.502;2022-07-24T14:21:51;56.70;1.00
3288;DHT22;3260;52.438;13.502;2022-07-24T14:24:19;56.80;1.00
3288;DHT22;3260;52.438;13.502;2022-07-24T14:26:49;57.10;1.00
3288;DHT22;3260;52.438;13.502;2022-07-24T14:29:17;57.30;1.00
3288;DHT22;3260;52.438;13.502;2022-07-24T14:31:47;57.50;1.00
3288;DHT22;3260;52.438;13.502;2022-07-24T14:34:15;57.30;1.00
3288;DHT22;3260;52.438;13.502;2022-07-24T14:36:44;56.90;1.00
3288;DHT22;3260;52.438;13.502;2022-07-24T14:39:12;56.00;1.00
3288;DHT22;3260;52.438;13.502;2022-07-24T14:41:41;54.60;1.00
3288;DHT22;3260;52.438;13.502;2022-07-24T14:44:09;55.20;1.00
3288;DHT22;3260;52.438;13.502;2022-07-24T14:46:38;55.70;1.00
3288;DHT22;3260;52.438;13.502;2022-07-24T14:49:09;55.80;1.00
3288;DHT22;3260;52.438;13.502;2022-07-24T14:51:38;55.40;1.00
3288;DHT22;3260;52.438;13.502;2022-07-24T14:54:07;54.70;1.00
3288;DHT22;3260;52.438;13.502;2022-07-24T14:56:37;54.50;1.00
3288;DHT22;3260;52.438;13.502;2022-07-24T14:59:06;54.60;1.00
3288;DHT22;3260;52.438;13.502;2022-07-24T15:01:45;54.70;1.00
3288;DHT22;3260;52.438;13.502;2022-07-24T15:04:15;54.60;1.00
3288;DHT22;3260;52.438;13.502;2022-07-24T15:06:43;54.40;1.00
3288;DHT22;3260;52.438;13.502;2022-07-24T15:09:11;54.40;1.00
3288;DHT22;3260;52.438;13.502;2022-07-24T15:11:39;54.10;1.00
3288;DHT22;3260;52.438;13.502;2022-07-24T15:14:07;53.30;1.00
3288;DHT22;3260;52.438;13.502;2022-07-24T15:16:36;53.10;1.00
3288;DHT22;3260;52.438;13.502;2022-07-24T15:19:04;53.20;1.00
3288;DHT22;3260;52.438;13.502;2022-07-24T15:21:35;53.50;1.00
3288;DHT22;3260;52.438;13.502;2022-07-24T15:24:05;53.10;1.00
3288;DHT22;3260;52.438;13.502;2022-07-24T15:26:35;53.10;1.00
3288;DHT22;3260;52.438;13.502;2022-07-24T15:29:04;52.80;1.00
3288;DHT22;3260;52.438;13.502;2022-07-24T15:31:33;52.60;1.00
3288;DHT22;3260;52.438;13.502;2022-07-24T15:34:04;52.50;1.00
3288;DHT22;3260;52.438;13.502;2022-07-24T15:36:37;52.30;1.00
3288;DHT22;3260;52.438;13.502;2022-07-24T15:39:07;52.00;1.00
3288;DHT22;3260;52.438;13.502;2022-07-24T15:41:38;51.30;1.00
3288;DHT22;3260;52.438;13.502;2022-07-24T15:44:07;51.20;1.00
3288;DHT22;3260;52.438;13.502;2022-07-24T15:46:36;50.90;1.00
3288;DHT22;3260;52.438;13.502;2022-07-24T15:49:06;51.50;1.00
3288;DHT22;3260;52.438;13.502;2022-07-24T15:51:37;51.10;1.00
3288;DHT22;3260;52.438;13.502;2022-07-24T15:54:05;50.50;1.00
3288;DHT22;3260;52.438;13.502;2022-07-24T15:56:35;50.60;1.00
3288;DHT22;3260;52.438;13.502;2022-07-24T15:59:03;50.60;1.00
3288;DHT22;3260;52.438;13.502;2022-07-24T16:01:32;50.70;1.00
3288;DHT22;3260;52.438;13.502;2022-07-24T16:04:19;50.90;1.00
3288;DHT22;3260;52.438;13.502;2022-07-24T16:06:48;51.50;1.00
3288;DHT22;3260;52.438;13.502;2022-07-24T16:09:17;51.80;1.00
3288;DHT22;3260;52.438;13.502;2022-07-24T16:11:45;52.50;1.00
3288;DHT22;3260;52.438;13.502;2022-07-24T16:14:23;52.60;1.00
3288;DHT22;3260;52.438;13.502;2022-07-24T16:16:51;52.00;1.00
3288;DHT22;3260;52.438;13.502;2022-07-24T16:19:20;52.00;1.00
3288;DHT22;3260;52.438;13.502;2022-07-24T16:21:50;51.90;1.00
3288;DHT22;3260;52.438;13.502;2022-07-24T16:24:18;52.00;1.00
3288;DHT22;3260;52.438;13.502;2022-07-24T16:26:46;52.10;1.00
3288;DHT22;3260;52.438;13.502;2022-07-24T16:29:14;51.90;1.00
3288;DHT22;3260;52.438;13.502;2022-07-24T16:31:52;51.90;1.00
3288;DHT22;3260;52.438;13.502;2022-07-24T16:34:21;50.90;1.00
3288;DHT22;3260;52.438;13.502;2022-07-24T16:36:50;50.50;1.00
3288;DHT22;3260;52.438;13.502;2022-07-24T16:39:19;50.20;1.00
3288;DHT22;3260;52.438;13.502;2022-07-24T16:42:07;49.40;1.00
3288;DHT22;3260;52.438;13.502;2022-07-24T16:44:36;48.70;1.00
3288;DHT22;3260;52.438;13.502;2022-07-24T16:47:07;48.00;1.00
3288;DHT22;3260;52.438;13.502;2022-07-24T16:49:35;47.20;1.00
3288;DHT22;3260;52.438;13.502;2022-07-24T16:52:05;45.70;1.00
3288;DHT22;3260;52.438;13.502;2022-07-24T16:54:34;44.70;1.00
3288;DHT22;3260;52.438;13.502;2022-07-24T16:57:03;44.40;1.00
3288;DHT22;3260;52.438;13.502;2022-07-24T16:59:31;44.40;1.00
3288;DHT22;3260;52.438;13.502;2022-07-24T17:02:00;44.20;1.00
3288;DHT22;3260;52.438;13.502;2022-07-24T17:04:28;43.70;1.00
3288;DHT22;3260;52.438;13.502;2022-07-24T17:06:56;43.70;1.00
3288;DHT22;3260;52.438;13.502;2022-07-24T17:09:25;43.90;1.00
3288;DHT22;3260;52.438;13.502;2022-07-24T17:11:54;44.00;1.00
3288;DHT22;3260;52.438;13.502;2022-07-24T17:14:24;44.20;1.00
3288;DHT22;3260;52.438;13.502;2022-07-24T17:16:54;44.00;1.00
3288;DHT22;3260;52.438;13.502;2022-07-24T17:19:23;44.10;1.00
3288;DHT22;3260;52.438;13.502;2022-07-24T17:21:58;43.70;1.00
3288;DHT22;3260;52.438;13.502;2022-07-24T17:24:29;43.40;1.00
3288;DHT22;3260;52.438;13.502;2022-07-24T17:26:57;43.00;1.00
3288;DHT22;3260;52.438;13.502;2022-07-24T17:29:25;43.20;1.00
3288;DHT22;3260;52.438;13.502;2022-07-24T17:31:53;43.30;1.00
3288;DHT22;3260;52.438;13.502;2022-07-24T17:34:21;43.20;1.00
3288;DHT22;3260;52.438;13.502;2022-07-24T17:36:49;42.30;1.00
3288;DHT22;3260;52.438;13.502;2022-07-24T17:39:17;41.70;1.00
3288;DHT22;3260;52.438;13.502;2022-07-24T17:41:47;41.00;1.00
3288;DHT22;3260;52.438;13.502;2022-07-24T17:44:15;40.80;1.00
3288;DHT22;3260;52.438;13.502;2022-07-24T17:46:43;40.80;1.00
3288;DHT22;3260;52.438;13.502;2022-07-24T17:49:11;40.80;1.00
3288;DHT22;3260;52.438;13.502;2022-07-24T17:51:46;40.80;1.00
3288;DHT22;3260;52.438;13.502;2022-07-24T17:54:14;40.50;1.00
3288;DHT22;3260;52.438;13.502;2022-07-24T17:56:42;40.30;1.00
3288;DHT22;3260;52.438;13.502;2022-07-24T17:59:13;40.10;1.00
3288;DHT22;3260;52.438;13.502;2022-07-24T18:01:42;39.70;1.00
3288;DHT22;3260;52.438;13.502;2022-07-24T18:04:10;39.30;1.00
3288;DHT22;3260;52.438;13.502;2022-07-24T18:06:38;38.80;1.00
3288;DHT22;3260;52.438;13.502;2022-07-24T18:09:06;38.50;1.00
3288;DHT22;3260;52.438;13.502;2022-07-24T18:11:34;38.10;1.00
3288;DHT22;3260;52.438;13.502;2022-07-24T18:14:03;37.20;1.00
3288;DHT22;3260;52.438;13.502;2022-07-24T18:16:33;36.20;1.00
3288;DHT22;3260;52.438;13.502;2022-07-24T18:19:01;35.30;1.00
3288;DHT22;3260;52.438;13.502;2022-07-24T18:21:30;34.40;1.00
3288;DHT22;3260;52.438;13.502;2022-07-24T18:23:58;33.50;1.00
3288;DHT22;3260;52.438;13.502;2022-07-24T18:26:26;32.80;1.00
3288;DHT22;3260;52.438;13.502;2022-07-24T18:28:54;32.10;1.00
3288;DHT22;3260;52.438;13.502;2022-07-24T18:31:23;31.40;1.00
3288;DHT22;3260;52.438;13.502;2022-07-24T18:33:53;30.90;1.00
3288;DHT22;3260;52.438;13.502;2022-07-24T18:36:21;30.40;1.00
3288;DHT22;3260;52.438;13.502;2022-07-24T18:38:49;30.10;1.00
3288;DHT22;3260;52.438;13.502;2022-07-24T18:41:18;29.60;1.00
3288;DHT22;3260;52.438;13.502;2022-07-24T18:43:47;29.30;1.00
3288;DHT22;3260;52.438;13.502;2022-07-24T18:46:15;28.90;1.00
3288;DHT22;3260;52.438;13.502;2022-07-24T18:48:44;28.60;1.00
3288;DHT22;3260;52.438;13.502;2022-07-24T18:51:13;28.30;1.00
3288;DHT22;3260;52.438;13.502;2022-07-24T18:53:51;28.00;1.00
3288;DHT22;3260;52.438;13.502;2022-07-24T18:56:21;27.80;1.00
3288;DHT22;3260;52.438;13.502;2022-07-24T18:58:50;27.50;1.00
3288;DHT22;3260;52.438;13.502;2022-07-24T19:01:18;27.40;1.00
3288;DHT22;3260;52.438;13.502;2022-07-24T19:03:47;27.20;1.00
3288;DHT22;3260;52.438;13.502;2022-07-24T19:06:17;27.00;1.00
3288;DHT22;3260;52.438;13.502;2022-07-24T19:08:45;26.80;1.00
3288;DHT22;3260;52.438;13.502;2022-07-24T19:11:13;26.70;1.00
3288;DHT22;3260;52.438;13.502;2022-07-24T19:13:41;26.50;1.00
3288;DHT22;3260;52.438;13.502;2022-07-24T19:16:10;26.40;1.00
3288;DHT22;3260;52.438;13.502;2022-07-24T19:18:38;26.20;1.00
3288;DHT22;3260;52.438;13.502;2022-07-24T19:21:07;26.10;1.00
3288;DHT22;3260;52.438;13.502;2022-07-24T19:23:37;26.00;1.00
3288;DHT22;3260;52.438;13.502;2022-07-24T19:26:05;25.80;1.00
3288;DHT22;3260;52.438;13.502;2022-07-24T19:28:33;25.70;1.00
3288;DHT22;3260;52.438;13.502;2022-07-24T19:31:01;25.60;1.00
3288;DHT22;3260;52.438;13.502;2022-07-24T19:33:29;25.50;1.00
3288;DHT22;3260;52.438;13.502;2022-07-24T19:35:57;25.40;1.00
3288;DHT22;3260;52.438;13.502;2022-07-24T19:38:26;25.20;1.00
3288;DHT22;3260;52.438;13.502;2022-07-24T19:40:55;25.10;1.00
3288;DHT22;3260;52.438;13.502;2022-07-24T19:43:23;25.00;1.00
3288;DHT22;3260;52.438;13.502;2022-07-24T19:45:55;24.90;1.00
3288;DHT22;3260;52.438;13.502;2022-07-24T19:48:23;24.80;1.00
3288;DHT22;3260;52.438;13.502;2022-07-24T19:50:51;24.70;1.00
3288;DHT22;3260;52.438;13.502;2022-07-24T19:53:40;24.60;1.00
3288;DHT22;3260;52.438;13.502;2022-07-24T19:56:11;24.50;1.00
3288;DHT22;3260;52.438;13.502;2022-07-24T19:58:39;24.40;1.00
3288;DHT22;3260;52.438;13.502;2022-07-24T20:01:07;24.30;1.00
3288;DHT22;3260;52.438;13.502;2022-07-24T20:03:35;24.20;1.00
3288;DHT22;3260;52.438;13.502;2022-07-24T20:06:04;24.10;1.00
3288;DHT22;3260;52.438;13.502;2022-07-24T20:08:33;24.00;1.00
3288;DHT22;3260;52.438;13.502;2022-07-24T20:11:10;23.80;1.00
3288;DHT22;3260;52.438;13.502;2022-07-24T20:13:39;23.80;1.00
3288;DHT22;3260;52.438;13.502;2022-07-24T20:16:07;23.60;1.00
3288;DHT22;3260;52.438;13.502;2022-07-24T20:18:35;23.60;1.00
3288;DHT22;3260;52.438;13.502;2022-07-24T20:21:04;23.50;1.00
3288;DHT22;3260;52.438;13.502;2022-07-24T20:23:32;23.40;1.00
3288;DHT22;3260;52.438;13.502;2022-07-24T20:26:00;23.30;1.00